createdAt,value
2022-10-07T00:03:50.045Z,102547.31
2022-10-07T00:08:53.889Z,102543.34
2022-10-07T00:13:58.638Z,102541.41
2022-10-07T00:19:04.624Z,102551.53
2022-10-07T00:24:07.969Z,102537.94
2022-10-07T00:29:10.002Z,102538.31
2022-10-07T00:34:13.081Z,102539.22
2022-10-07T00:39:15.270Z,102531.41
2022-10-07T00:44:39.417Z,102532.84
2022-10-07T00:49:48.534Z,102515.16
2022-10-07T00:54:55.707Z,102521.25
2022-10-07T00:59:59.258Z,102524.56
2022-10-07T01:05:05.854Z,102516.00
2022-10-07T01:10:10.202Z,102514.31
2022-10-07T01:15:19.027Z,102488.31
2022-10-07T01:20:33.315Z,102494.31
2022-10-07T01:25:48.762Z,102491.50
2022-10-07T01:30:56.863Z,102476.28
2022-10-07T01:36:03.699Z,102472.44
2022-10-07T01:41:10.990Z,102473.50
2022-10-07T01:46:18.473Z,102459.25
2022-10-07T01:51:23.609Z,102459.34
2022-10-07T01:56:42.126Z,102460.13
2022-10-07T02:01:55.096Z,102447.94
2022-10-07T02:07:03.562Z,102444.09
2022-10-07T02:12:14.092Z,102446.50
2022-10-07T02:17:20.700Z,102437.59
2022-10-07T02:22:26.351Z,102432.22
2022-10-07T02:27:34.634Z,102432.22
2022-10-07T02:32:41.380Z,102430.91
2022-10-07T02:37:46.963Z,102418.00
2022-10-07T02:42:56.736Z,102407.72
2022-10-07T02:48:07.146Z,102412.13
2022-10-07T02:53:11.089Z,102396.25
2022-10-07T02:58:14.078Z,102395.22
2022-10-07T03:03:17.596Z,102397.34
2022-10-07T03:08:21.688Z,102386.31
2022-10-07T03:13:23.702Z,102399.78
2022-10-07T03:18:27.629Z,102385.41
2022-10-07T03:23:30.119Z,102385.25
2022-10-07T03:28:34.937Z,102380.53
2022-10-07T03:33:38.836Z,102383.75
2022-10-07T03:38:40.552Z,102387.13
2022-10-07T03:43:42.623Z,102365.81
2022-10-07T03:48:46.031Z,102365.72
2022-10-07T03:53:48.064Z,102361.09
2022-10-07T03:58:50.659Z,102354.19
2022-10-07T04:03:53.890Z,102357.41
2022-10-07T04:08:55.803Z,102361.88
2022-10-07T04:13:57.627Z,102352.97
2022-10-07T04:19:01.359Z,102349.44
2022-10-07T04:24:03.413Z,102346.47
2022-10-07T04:29:05.366Z,102341.91
2022-10-07T04:34:09.016Z,102336.41
2022-10-07T04:39:10.847Z,102333.09
2022-10-07T04:44:12.535Z,102329.84
2022-10-07T04:49:15.730Z,102315.28
2022-10-07T04:54:17.748Z,102319.06
2022-10-07T04:59:23.453Z,102313.38
2022-10-07T05:04:27.025Z,102308.53
2022-10-07T05:09:29.155Z,102308.13
2022-10-07T05:14:30.839Z,102294.78
2022-10-07T05:19:34.071Z,102300.09
2022-10-07T05:24:35.917Z,102303.41
2022-10-07T05:29:37.572Z,102293.34
2022-10-07T05:34:40.956Z,102289.59
2022-10-07T05:39:42.791Z,102286.31
2022-10-07T05:44:45.354Z,102285.72
2022-10-07T05:49:48.745Z,102277.13
2022-10-07T05:54:50.931Z,102279.91
2022-10-07T05:59:52.860Z,102274.28
2022-10-07T06:04:56.312Z,102280.94
2022-10-07T06:09:58.626Z,102281.25
2022-10-07T06:15:00.555Z,102282.13
2022-10-07T06:20:04.703Z,102269.44
2022-10-07T06:25:08.119Z,102256.91
2022-10-07T06:30:10.751Z,102263.88
2022-10-07T06:35:13.724Z,102261.41
2022-10-07T06:40:16.347Z,102266.66
2022-10-07T06:45:18.129Z,102263.19
2022-10-07T06:50:21.629Z,102271.19
2022-10-07T06:55:23.656Z,102262.41
2022-10-07T07:00:25.588Z,102267.69
2022-10-07T07:05:33.633Z,102268.44
2022-10-07T07:10:37.291Z,102272.63
2022-10-07T07:15:40.314Z,102266.22
2022-10-07T07:20:43.827Z,102267.00
2022-10-07T07:25:45.908Z,102261.56
2022-10-07T07:30:48.118Z,102257.88
2022-10-07T07:35:51.223Z,102259.34
2022-10-07T07:40:53.645Z,102252.94
2022-10-07T07:45:58.626Z,102252.56
2022-10-07T07:51:06.187Z,102244.28
2022-10-07T07:56:08.305Z,102249.22
2022-10-07T08:01:12.068Z,102253.41
2022-10-07T08:06:17.992Z,102232.69
2022-10-07T08:11:21.089Z,102224.28
2022-10-07T08:16:25.221Z,102225.66
2022-10-07T08:21:30.144Z,102223.38
2022-10-07T08:26:34.060Z,102215.84
2022-10-07T08:31:36.238Z,102215.22
2022-10-07T08:36:40.041Z,102211.94
2022-10-07T08:41:51.273Z,102206.81
2022-10-07T08:47:02.007Z,102197.28
2022-10-07T08:52:18.983Z,102194.81
2022-10-07T08:57:38.567Z,102185.13
2022-10-07T09:02:52.171Z,102175.41
2022-10-07T09:07:59.389Z,102171.91
2022-10-07T09:13:05.883Z,102156.72
2022-10-07T09:18:17.954Z,102157.44
2022-10-07T09:23:25.147Z,102151.03
2022-10-07T09:28:30.302Z,102135.56
2022-10-07T09:33:43.088Z,102132.47
2022-10-07T09:38:48.511Z,102130.31
2022-10-07T09:44:00.890Z,102123.06
2022-10-07T09:49:04.147Z,102114.59
2022-10-07T09:54:20.912Z,102114.53
2022-10-07T09:59:24.792Z,102107.38
2022-10-07T10:04:31.716Z,102090.59
2022-10-07T10:09:35.365Z,102094.25
2022-10-07T10:14:46.252Z,102079.31
2022-10-07T10:19:48.273Z,102077.00
2022-10-07T10:24:52.465Z,102068.03
2022-10-07T10:29:58.429Z,102055.66
2022-10-07T10:35:08.071Z,102036.09
2022-10-07T10:40:26.288Z,102044.66
2022-10-07T10:45:35.124Z,102035.47
2022-10-07T10:50:46.431Z,102012.66
2022-10-07T10:56:04.582Z,102007.09
2022-10-07T11:01:19.567Z,101987.47
2022-10-07T11:06:22.690Z,101975.59
2022-10-07T11:11:28.098Z,101969.31
2022-10-07T11:16:36.898Z,101958.81
2022-10-07T11:21:43.487Z,101948.78
2022-10-07T11:26:51.344Z,101936.94
2022-10-07T11:32:00.588Z,101930.91
2022-10-07T11:37:13.529Z,101915.88
2022-10-07T11:42:22.646Z,101911.41
2022-10-07T11:47:28.069Z,101895.56
2022-10-07T11:52:43.287Z,101888.00
2022-10-07T11:57:52.596Z,101872.41
2022-10-07T12:02:55.085Z,101865.88
2022-10-07T12:07:58.704Z,101865.94
2022-10-07T12:13:36.004Z,101860.84
2022-10-07T12:18:37.909Z,101842.84
2022-10-07T12:23:46.598Z,101843.06
2022-10-07T12:28:51.757Z,101823.63
2022-10-07T12:33:57.204Z,101818.53
2022-10-07T12:39:33.885Z,101817.66
2022-10-07T12:44:40.968Z,101808.06
2022-10-07T12:49:47.274Z,101794.63
2022-10-07T12:54:54.541Z,101791.69
2022-10-07T13:00:05.597Z,101788.38
2022-10-07T13:05:46.191Z,101773.25
2022-10-07T13:11:06.519Z,101766.03
2022-10-07T13:16:15.973Z,101756.06
2022-10-07T13:21:24.569Z,101757.00
2022-10-07T13:26:27.227Z,101756.81
2022-10-07T13:31:31.960Z,101747.91
2022-10-07T13:36:42.050Z,101741.19
2022-10-07T13:41:47.526Z,101741.97
2022-10-07T13:46:55.215Z,101734.81
2022-10-07T13:51:59.474Z,101733.16
2022-10-07T13:57:03.288Z,101715.25
2022-10-07T14:02:12.705Z,101720.31
2022-10-07T14:07:17.186Z,101711.72
2022-10-07T14:12:22.503Z,101694.94
2022-10-07T14:17:37.294Z,101684.22
2022-10-07T14:22:41.546Z,101669.38
2022-10-07T14:28:06.838Z,101661.19
2022-10-07T14:33:14.025Z,101670.66
2022-10-07T14:38:20.301Z,101660.06
2022-10-07T14:43:22.624Z,101642.63
2022-10-07T14:48:25.653Z,101636.66
2022-10-07T14:53:27.532Z,101636.66
2022-10-07T14:58:30.086Z,101623.94
2022-10-07T15:03:33.608Z,101613.31
2022-10-07T15:08:35.892Z,101601.28
2022-10-07T15:13:37.960Z,101599.53
2022-10-07T15:18:44.415Z,101597.69
2022-10-07T15:23:52.418Z,101586.84
2022-10-07T15:28:55.639Z,101587.13
2022-10-07T15:33:59.393Z,101585.00
2022-10-07T15:39:01.466Z,101591.88
2022-10-07T15:44:06.381Z,101586.94
2022-10-07T15:49:10.036Z,101583.06
2022-10-07T15:54:11.790Z,101569.47
2022-10-07T15:59:14.237Z,101569.34
2022-10-07T16:04:17.959Z,101566.53
2022-10-07T16:09:20.952Z,101562.84
2022-10-07T16:14:22.613Z,101570.56
2022-10-07T16:19:25.785Z,101552.66
2022-10-07T16:24:32.503Z,101563.19
2022-10-07T16:29:37.060Z,101562.84
2022-10-07T16:34:41.066Z,101559.66
2022-10-07T16:39:42.830Z,101553.75
2022-10-07T16:44:48.487Z,101558.41
2022-10-07T16:49:53.640Z,101561.28
2022-10-07T16:54:55.727Z,101563.13
2022-10-07T16:59:58.104Z,101553.50
2022-10-07T17:05:01.273Z,101554.47
2022-10-07T17:10:03.308Z,101558.03
2022-10-07T17:15:05.387Z,101553.63
2022-10-07T17:20:09.045Z,101554.50
2022-10-07T17:25:10.727Z,101548.34
2022-10-07T17:30:13.212Z,101549.22
2022-10-07T17:35:16.829Z,101546.47
2022-10-07T17:40:18.826Z,101545.53
2022-10-07T17:45:20.844Z,101534.88
2022-10-07T17:50:24.349Z,101532.19
2022-10-07T17:55:26.306Z,101535.66
2022-10-07T18:00:28.408Z,101535.59
2022-10-07T18:05:31.762Z,101532.88
2022-10-07T18:10:33.898Z,101539.84
2022-10-07T18:15:35.966Z,101530.00
2022-10-07T18:20:39.502Z,101524.63
2022-10-07T18:25:41.630Z,101517.53
2022-10-07T18:30:43.419Z,101513.00
2022-10-07T18:35:46.978Z,101502.25
2022-10-07T18:40:49.687Z,101500.41
2022-10-07T18:45:57.795Z,101498.59
2022-10-07T18:51:02.581Z,101483.56
2022-10-07T18:56:06.609Z,101488.84
2022-10-07T19:01:10.501Z,101481.72
2022-10-07T19:06:16.827Z,101486.91
2022-10-07T19:11:19.067Z,101465.63
2022-10-07T19:16:23.402Z,101478.09
2022-10-07T19:21:27.560Z,101464.75
2022-10-07T19:26:32.051Z,101464.59
2022-10-07T19:31:35.782Z,101462.00
2022-10-07T19:36:41.435Z,101460.13
2022-10-07T19:41:43.596Z,101453.28
2022-10-07T19:46:50.589Z,101448.47
2022-10-07T19:51:53.844Z,101454.81
2022-10-07T19:56:56.082Z,101440.78
2022-10-07T20:02:01.096Z,101431.03
2022-10-07T20:07:07.398Z,101434.59
2022-10-07T20:12:09.228Z,101437.22
2022-10-07T20:17:10.972Z,101429.28
2022-10-07T20:22:14.263Z,101421.31
2022-10-07T20:27:16.089Z,101421.31
2022-10-07T20:32:18.206Z,101416.03
2022-10-07T20:37:22.566Z,101412.44
2022-10-07T20:42:25.233Z,101408.91
2022-10-07T20:47:29.343Z,101403.53
2022-10-07T20:52:35.977Z,101397.34
2022-10-07T20:57:38.085Z,101396.31
2022-10-07T21:02:40.147Z,101399.84
2022-10-07T21:07:43.312Z,101389.28
2022-10-07T21:12:45.404Z,101389.31
2022-10-07T21:17:47.539Z,101381.34
2022-10-07T21:22:50.955Z,101387.47
2022-10-07T21:27:53.055Z,101383.78
2022-10-07T21:32:54.878Z,101387.41
2022-10-07T21:37:58.983Z,101378.47
2022-10-07T21:43:00.706Z,101369.59
2022-10-07T21:48:02.879Z,101359.91
2022-10-07T21:53:06.041Z,101355.38
2022-10-07T21:58:07.859Z,101351.81
2022-10-07T22:03:10.105Z,101340.25
2022-10-07T22:08:16.384Z,101334.91
2022-10-07T22:13:18.101Z,101328.66
2022-10-07T22:18:19.741Z,101327.69
2022-10-07T22:23:23.092Z,101321.47
2022-10-07T22:28:24.800Z,101315.25
2022-10-07T22:33:26.926Z,101309.88
2022-10-07T22:38:30.152Z,101307.16
2022-10-07T22:43:32.291Z,101300.09
2022-10-07T22:48:35.189Z,101289.41
2022-10-07T22:53:40.337Z,101277.22
2022-10-07T22:58:43.404Z,101263.94
2022-10-07T23:03:46.009Z,101265.75
2022-10-07T23:08:49.206Z,101258.66
2022-10-07T23:13:51.897Z,101254.34
2022-10-07T23:18:54.012Z,101251.59
2022-10-07T23:24:01.700Z,101241.97
2022-10-07T23:29:06.950Z,101241.84
2022-10-07T23:34:10.616Z,101248.88
2022-10-07T23:39:14.221Z,101233.75
2022-10-07T23:44:16.150Z,101229.41
2022-10-07T23:49:17.908Z,101231.91
2022-10-07T23:54:21.327Z,101227.50
2022-10-07T23:59:23.390Z,101221.34
